Time;durP1;ratioP1;P1;durP2;ratioP2;P2;SDS_P1;SDS_P2;PMS_P1;PMS_P2;Temp;Humidity;BMP_temperature;BMP_pressure;BME280_temperature;BME280_humidity;BME280_pressure;Samples;Min_cycle;Max_cycle;Signal;HPM_P1;HPM_P2
2023/03/26 00:01:36;;;;;;;7.90;1.23;;;22.80;99.90;;;;;;5025506;28;20025;-62
2023/03/26 00:04:05;;;;;;;3.60;1.02;;;22.70;99.90;;;;;;5025170;28;20022;-63
2023/03/26 00:06:37;;;;;;;5.65;0.93;;;22.60;99.90;;;;;;5019766;28;20029;-63
2023/03/26 00:09:08;;;;;;;3.00;0.98;;;22.70;99.90;;;;;;5023895;28;20061;-62
2023/03/26 00:11:36;;;;;;;4.60;1.20;;;22.80;99.90;;;;;;5023786;28;20033;-63
2023/03/26 00:14:04;;;;;;;6.78;0.90;;;22.90;99.90;;;;;;5024653;28;20069;-64
2023/03/26 00:16:32;;;;;;;3.95;0.80;;;23.00;99.90;;;;;;5027421;28;20402;-64
2023/03/26 00:19:00;;;;;;;5.03;1.20;;;23.20;99.90;;;;;;5023726;28;20022;-64
2023/03/26 00:21:29;;;;;;;3.53;1.17;;;23.40;99.90;;;;;;5028504;28;20044;-64
2023/03/26 00:24:09;;;;;;;7.30;1.52;;;23.60;99.90;;;;;;5026045;28;20474;-64
2023/03/26 00:26:37;;;;;;;4.95;0.93;;;23.70;99.90;;;;;;5026316;28;20037;-63
2023/03/26 00:29:07;;;;;;;5.90;1.08;;;23.90;99.90;;;;;;5028382;28;20026;-64
2023/03/26 00:31:40;;;;;;;6.63;1.83;;;24.10;99.90;;;;;;5027997;28;20029;-63
2023/03/26 00:34:09;;;;;;;6.47;1.50;;;24.30;99.90;;;;;;5024192;28;20029;-68
2023/03/26 00:36:36;;;;;;;2.40;0.95;;;24.80;99.90;;;;;;5024010;28;20124;-62
2023/03/26 00:39:05;;;;;;;5.53;1.77;;;25.20;99.90;;;;;;5023399;28;20025;-63
2023/03/26 00:41:35;;;;;;;6.57;1.65;;;25.70;99.90;;;;;;5021905;28;20037;-62
2023/03/26 00:44:03;;;;;;;6.93;1.33;;;26.10;99.90;;;;;;5024969;28;20487;-63
2023/03/26 00:46:31;;;;;;;5.35;1.52;;;26.20;99.90;;;;;;5028491;28;20099;-64
2023/03/26 00:49:00;;;;;;;3.97;0.90;;;26.30;99.90;;;;;;5027086;28;20022;-63
2023/03/26 00:51:29;;;;;;;6.75;1.85;;;26.20;99.90;;;;;;5024886;28;20040;-63
2023/03/26 00:53:57;;;;;;;4.75;1.45;;;26.20;99.90;;;;;;5039986;28;20037;-64
2023/03/26 00:56:25;;;;;;;7.72;1.52;;;26.20;99.90;;;;;;5026887;28;20080;-62
2023/03/26 00:58:52;;;;;;;6.68;2.00;;;26.10;99.90;;;;;;5027352;28;20107;-64
2023/03/26 01:01:26;;;;;;;3.67;1.63;;;26.00;99.90;;;;;;5026447;28;20032;-64
2023/03/26 01:03:58;;;;;;;3.53;1.02;;;25.90;99.90;;;;;;5023743;28;20501;-63
2023/03/26 01:06:31;;;;;;;3.65;1.58;;;26.10;99.90;;;;;;5024231;28;20091;-62
2023/03/26 01:09:04;;;;;;;6.13;1.17;;;26.00;99.90;;;;;;5025266;28;20037;-62
2023/03/26 01:11:34;;;;;;;7.45;1.77;;;25.90;99.90;;;;;;5026058;28;20022;-63
2023/03/26 01:14:06;;;;;;;6.80;1.70;;;26.20;99.90;;;;;;5037953;28;20031;-62
2023/03/26 01:16:35;;;;;;;8.27;2.00;;;26.10;99.90;;;;;;5026325;28;20116;-62
2023/03/26 01:19:25;;;;;;;7.43;2.03;;;26.10;99.90;;;;;;5023838;28;20118;-62
2023/03/26 01:21:52;;;;;;;7.18;1.92;;;26.30;99.90;;;;;;5025996;28;20132;-61
2023/03/26 01:24:21;;;;;;;5.88;1.98;;;26.60;99.90;;;;;;5025369;28;20066;-61
2023/03/26 01:27:16;;;;;;;9.57;2.20;;;26.80;99.90;;;;;;5024100;28;20025;-60
2023/03/26 01:29:54;;;;;;;7.25;2.65;;;27.10;99.90;;;;;;5021258;28;20355;-61
2023/03/26 01:32:54;;;;;;;6.97;1.65;;;27.20;99.90;;;;;;5025382;28;20026;-60
2023/03/26 01:35:21;;;;;;;5.95;1.67;;;27.10;99.90;;;;;;5023071;28;20526;-63
2023/03/26 01:37:57;;;;;;;6.45;1.25;;;27.20;99.90;;;;;;5027146;28;20017;-63
2023/03/26 01:40:24;;;;;;;4.80;1.70;;;27.30;99.90;;;;;;5030930;28;20494;-63
2023/03/26 01:43:13;;;;;;;9.02;1.38;;;27.70;99.90;;;;;;5029238;28;20410;-63
2023/03/26 01:45:44;;;;;;;3.08;1.67;;;28.10;99.90;;;;;;5027912;28;20175;-63
2023/03/26 01:48:12;;;;;;;7.68;1.33;;;28.60;99.90;;;;;;5026564;28;20025;-63
2023/03/26 01:50:40;;;;;;;8.15;1.67;;;28.70;99.90;;;;;;5029893;28;20095;-63
2023/03/26 01:53:10;;;;;;;4.50;1.73;;;28.80;99.90;;;;;;5027679;28;20021;-63
2023/03/26 01:56:00;;;;;;;4.38;1.30;;;29.00;99.90;;;;;;5026766;28;20092;-64
2023/03/26 01:58:55;;;;;;;8.32;1.20;;;28.60;98.40;;;;;;5033061;28;20490;-63
2023/03/26 02:01:53;;;;;;;2.53;0.73;;;28.00;99.90;;;;;;5023737;28;20056;-62
2023/03/26 02:04:47;;;;;;;3.28;1.00;;;27.80;99.90;;;;;;5005403;28;20037;-64
2023/03/26 02:07:23;;;;;;;6.70;0.93;;;27.70;99.90;;;;;;5020649;28;20084;-63
2023/03/26 02:09:59;;;;;;;3.40;1.02;;;28.00;99.90;;;;;;5029155;28;20037;-65
2023/03/26 02:12:28;;;;;;;4.32;1.10;;;28.10;99.90;;;;;;5027414;28;20886;-64
2023/03/26 02:14:58;;;;;;;6.15;1.55;;;28.10;99.90;;;;;;5030694;28;20129;-64
2023/03/26 02:17:28;;;;;;;7.07;1.02;;;28.10;98.70;;;;;;5029543;28;20105;-64
2023/03/26 02:19:56;;;;;;;7.88;1.60;;;27.90;99.90;;;;;;5026262;28;20029;-65
2023/03/26 02:22:28;;;;;;;6.13;0.77;;;27.60;99.90;;;;;;5028969;28;20383;-64
2023/03/26 02:24:56;;;;;;;2.10;0.70;;;27.30;99.90;;;;;;5031318;28;20025;-64
2023/03/26 02:27:23;;;;;;;6.32;1.13;;;27.30;99.90;;;;;;5033070;28;20538;-63
2023/03/26 02:29:51;;;;;;;3.97;0.90;;;26.90;99.90;;;;;;5030748;28;20025;-65
2023/03/26 02:32:19;;;;;;;3.40;1.02;;;26.60;99.90;;;;;;5030405;28;20025;-65
2023/03/26 02:34:46;;;;;;;2.25;0.70;;;26.70;99.90;;;;;;5031151;28;20033;-64
2023/03/26 02:37:13;;;;;;;4.82;0.90;;;26.70;99.90;;;;;;5032410;28;20021;-64
2023/03/26 02:39:41;;;;;;;3.30;1.00;;;26.70;99.90;;;;;;5031942;28;20029;-63
2023/03/26 02:42:08;;;;;;;5.05;1.30;;;26.60;99.90;;;;;;5028739;28;20032;-63
2023/03/26 02:44:38;;;;;;;4.80;0.82;;;26.50;99.90;;;;;;5010635;28;20061;-63
2023/03/26 02:47:06;;;;;;;3.72;1.30;;;26.40;99.90;;;;;;5012768;28;20061;-63
2023/03/26 02:49:34;;;;;;;4.40;1.02;;;26.30;99.90;;;;;;5031208;28;20053;-63
2023/03/26 02:52:05;;;;;;;8.60;1.65;;;26.20;99.90;;;;;;5028683;28;20033;-64
2023/03/26 02:54:34;;;;;;;4.95;1.17;;;26.10;99.90;;;;;;5018754;28;20092;-63
2023/03/26 02:57:01;;;;;;;3.83;1.20;;;26.10;99.90;;;;;;5024741;28;20085;-63
2023/03/26 02:59:29;;;;;;;2.22;0.68;;;26.00;99.90;;;;;;5026127;28;20056;-63
2023/03/26 03:01:56;;;;;;;4.78;0.98;;;25.90;99.90;;;;;;5037640;28;20100;-64
2023/03/26 03:04:24;;;;;;;3.00;0.85;;;25.90;99.90;;;;;;5032174;28;20136;-63
2023/03/26 03:06:56;;;;;;;5.75;1.02;;;25.90;99.90;;;;;;5030374;28;20368;-63
2023/03/26 03:09:24;;;;;;;3.08;0.80;;;26.00;99.90;;;;;;5030996;28;20041;-64
2023/03/26 03:11:52;;;;;;;3.05;0.77;;;25.90;99.90;;;;;;5030354;28;20088;-64
2023/03/26 03:14:19;;;;;;;7.15;1.05;;;25.90;99.90;;;;;;5031040;28;20042;-63
2023/03/26 03:16:47;;;;;;;5.70;1.02;;;26.00;99.90;;;;;;5031608;28;20064;-63
2023/03/26 03:19:15;;;;;;;3.78;1.42;;;25.90;99.90;;;;;;5026994;28;20535;-63
2023/03/26 03:21:42;;;;;;;4.18;0.93;;;26.10;99.90;;;;;;5028792;28;20034;-63
2023/03/26 03:24:12;;;;;;;6.03;1.23;;;26.20;99.90;;;;;;5030108;28;20056;-64
2023/03/26 03:26:41;;;;;;;3.72;1.00;;;26.30;99.90;;;;;;5028861;28;20433;-64
2023/03/26 03:29:09;;;;;;;4.40;0.90;;;26.30;99.90;;;;;;5030206;28;20049;-64
2023/03/26 03:31:36;;;;;;;2.08;0.70;;;26.30;99.90;;;;;;5029841;28;20022;-64
2023/03/26 03:34:04;;;;;;;4.05;1.08;;;26.30;99.90;;;;;;5028794;28;20036;-64
2023/03/26 03:36:32;;;;;;;5.60;1.98;;;26.00;99.90;;;;;;5028803;28;20482;-64
2023/03/26 03:39:01;;;;;;;4.18;1.30;;;25.90;99.90;;;;;;5029893;28;20068;-64
2023/03/26 03:41:30;;;;;;;5.75;1.23;;;25.90;99.90;;;;;;5026609;28;20478;-64
2023/03/26 03:43:58;;;;;;;4.60;0.88;;;25.90;99.90;;;;;;5030414;28;20102;-64
2023/03/26 03:46:26;;;;;;;2.85;0.77;;;25.90;99.90;;;;;;5030424;28;20025;-64
2023/03/26 03:48:53;;;;;;;3.60;0.90;;;26.00;99.90;;;;;;5029925;28;20033;-64
2023/03/26 03:51:21;;;;;;;2.22;0.57;;;26.00;99.90;;;;;;5030576;28;20048;-64
2023/03/26 03:53:48;;;;;;;6.05;0.82;;;25.90;99.90;;;;;;5043113;28;20029;-64
2023/03/26 03:56:18;;;;;;;3.88;1.55;;;25.80;99.90;;;;;;5024528;28;20038;-64
2023/03/26 03:58:46;;;;;;;3.80;0.85;;;25.70;99.90;;;;;;5025201;28;20028;-64
2023/03/26 04:01:14;;;;;;;4.90;1.10;;;25.60;99.90;;;;;;5027940;28;20130;-63
2023/03/26 04:03:44;;;;;;;3.72;1.08;;;25.60;99.90;;;;;;5027701;28;20017;-63
2023/03/26 04:06:13;;;;;;;4.55;1.10;;;25.60;99.90;;;;;;5027493;28;20021;-63
2023/03/26 04:08:40;;;;;;;4.75;1.30;;;25.50;99.90;;;;;;5027676;28;20473;-63
2023/03/26 04:11:08;;;;;;;6.78;1.50;;;25.50;99.90;;;;;;5026283;28;20017;-63
2023/03/26 04:13:36;;;;;;;4.25;1.95;;;25.40;99.90;;;;;;5024529;28;20029;-64
2023/03/26 04:16:03;;;;;;;8.68;1.95;;;25.20;99.90;;;;;;5016180;28;20029;-64
2023/03/26 04:18:31;;;;;;;4.80;1.63;;;25.10;99.90;;;;;;5023497;28;20018;-64
2023/03/26 04:21:02;;;;;;;5.93;1.00;;;25.10;99.90;;;;;;5024478;28;20124;-64
2023/03/26 04:23:29;;;;;;;15.90;1.20;;;25.20;99.90;;;;;;5017848;28;20021;-64
2023/03/26 04:26:02;;;;;;;5.53;1.17;;;25.10;99.90;;;;;;5021169;28;20478;-64
2023/03/26 04:28:54;;;;;;;8.05;2.42;;;25.00;99.90;;;;;;5023415;28;20052;-65
2023/03/26 04:31:27;;;;;;;4.68;1.30;;;25.10;99.90;;;;;;5018425;28;20398;-66
2023/03/26 04:34:00;;;;;;;5.50;1.23;;;25.20;99.90;;;;;;5024377;28;20022;-65
2023/03/26 04:36:30;;;;;;;7.22;1.30;;;25.40;99.90;;;;;;5026788;28;20083;-65
2023/03/26 04:39:01;;;;;;;7.60;2.58;;;25.60;99.90;;;;;;5029440;28;20025;-65
2023/03/26 04:41:29;;;;;;;4.53;1.40;;;25.80;99.90;;;;;;5029708;28;20029;-65
2023/03/26 04:43:56;;;;;;;4.53;1.65;;;25.90;99.90;;;;;;5029700;28;20036;-65
2023/03/26 04:46:23;;;;;;;5.95;1.73;;;25.70;99.90;;;;;;5029848;28;20029;-62
2023/03/26 04:48:52;;;;;;;4.68;1.30;;;25.70;99.90;;;;;;5029587;28;20026;-63
2023/03/26 04:51:24;;;;;;;3.13;1.48;;;25.80;99.90;;;;;;5035795;28;20025;-63
2023/03/26 04:53:57;;;;;;;6.45;1.92;;;25.70;99.90;;;;;;5040319;28;20021;-64
2023/03/26 04:56:34;;;;;;;4.77;2.03;;;25.70;99.90;;;;;;5048888;28;20066;-64
2023/03/26 04:59:02;;;;;;;6.10;1.67;;;25.70;99.90;;;;;;5044785;28;20274;-64
2023/03/26 05:01:30;;;;;;;4.57;2.50;;;25.40;99.90;;;;;;5042150;28;20033;-64
2023/03/26 05:03:58;;;;;;;5.15;1.48;;;25.40;99.90;;;;;;5038363;28;20183;-64
2023/03/26 05:06:27;;;;;;;5.63;1.30;;;25.40;99.90;;;;;;5020649;28;20025;-64
2023/03/26 05:08:55;;;;;;;5.50;1.50;;;25.60;99.90;;;;;;5029455;28;20068;-64
2023/03/26 05:11:22;;;;;;;4.80;2.17;;;25.70;99.90;;;;;;5030803;28;20053;-64
2023/03/26 05:13:50;;;;;;;5.95;1.38;;;25.80;99.90;;;;;;5047536;28;20029;-64
2023/03/26 05:16:17;;;;;;;4.72;1.42;;;25.80;99.90;;;;;;5027769;28;20087;-65
2023/03/26 05:18:45;;;;;;;5.55;1.42;;;25.90;99.90;;;;;;5029577;28;20025;-64
2023/03/26 05:21:12;;;;;;;5.63;1.27;;;25.90;99.90;;;;;;5026435;28;20057;-64
2023/03/26 05:23:40;;;;;;;5.22;1.20;;;25.80;99.90;;;;;;5031904;28;20025;-64
2023/03/26 05:26:08;;;;;;;5.60;1.70;;;25.80;99.90;;;;;;5030209;28;20540;-63
2023/03/26 05:28:36;;;;;;;5.60;1.65;;;25.70;99.90;;;;;;5036550;28;20053;-64
2023/03/26 05:31:04;;;;;;;4.70;1.20;;;25.50;99.90;;;;;;5038790;28;20042;-63
2023/03/26 05:33:31;;;;;;;3.80;1.15;;;25.50;99.90;;;;;;5021350;28;20025;-63
2023/03/26 05:36:05;;;;;;;7.13;1.50;;;25.50;99.90;;;;;;5026267;28;20088;-64
2023/03/26 05:38:33;;;;;;;4.32;1.13;;;25.50;99.90;;;;;;5035396;28;20438;-64
2023/03/26 05:41:06;;;;;;;6.15;1.23;;;25.60;99.90;;;;;;5031358;28;20067;-64
2023/03/26 05:43:35;;;;;;;7.35;1.63;;;25.60;99.90;;;;;;5025032;28;20034;-63
2023/03/26 05:46:02;;;;;;;4.40;1.52;;;25.60;99.90;;;;;;5034699;28;20491;-63
2023/03/26 05:48:30;;;;;;;5.50;1.60;;;25.60;99.90;;;;;;5026930;28;20076;-63
2023/03/26 05:50:58;;;;;;;7.25;1.85;;;25.60;99.90;;;;;;5027128;28;20520;-64
2023/03/26 05:53:27;;;;;;;4.93;1.92;;;25.50;99.90;;;;;;5031389;28;20461;-63
2023/03/26 05:55:57;;;;;;;4.88;1.65;;;25.40;99.90;;;;;;5031753;28;20112;-63
2023/03/26 05:58:32;;;;;;;9.40;1.92;;;25.40;99.90;;;;;;5032436;28;20025;-63
2023/03/26 06:01:07;;;;;;;3.85;1.75;;;25.30;99.90;;;;;;5032165;28;20549;-63
2023/03/26 06:03:41;;;;;;;5.88;1.20;;;25.20;99.90;;;;;;5032687;28;20022;-63
2023/03/26 06:06:15;;;;;;;4.22;1.13;;;25.10;99.90;;;;;;5032837;28;20474;-63
2023/03/26 06:08:47;;;;;;;4.77;1.60;;;25.00;99.90;;;;;;5031219;28;20064;-62
2023/03/26 06:11:16;;;;;;;7.43;1.80;;;24.90;99.90;;;;;;5032496;28;20021;-63
2023/03/26 06:13:44;;;;;;;3.45;0.98;;;25.00;99.90;;;;;;5031864;28;20060;-63
2023/03/26 06:16:13;;;;;;;7.38;1.30;;;25.10;99.90;;;;;;5032259;28;20081;-63
2023/03/26 06:18:40;;;;;;;8.70;2.65;;;25.20;99.90;;;;;;5032272;28;20017;-63
2023/03/26 06:21:08;;;;;;;13.85;2.05;;;25.40;99.90;;;;;;5031653;28;20067;-63
2023/03/26 06:23:35;;;;;;;2.45;1.30;;;25.40;99.90;;;;;;5032247;28;20018;-63
2023/03/26 06:26:02;;;;;;;5.43;1.00;;;25.40;99.90;;;;;;5032366;28;20029;-63
2023/03/26 06:28:30;;;;;;;6.63;1.52;;;25.10;99.90;;;;;;5032082;28;20394;-64
2023/03/26 06:31:02;;;;;;;7.40;1.77;;;24.90;99.90;;;;;;5030646;28;20033;-64
2023/03/26 06:33:30;;;;;;;3.42;1.50;;;24.80;99.90;;;;;;5031856;28;20064;-64
2023/03/26 06:35:57;;;;;;;4.18;0.88;;;24.70;99.90;;;;;;5030608;28;20398;-64
2023/03/26 06:38:25;;;;;;;4.93;1.40;;;24.40;99.90;;;;;;5031885;28;20041;-64
2023/03/26 06:40:53;;;;;;;7.47;1.27;;;24.20;99.90;;;;;;5031838;28;20475;-63
2023/03/26 06:43:20;;;;;;;7.90;1.23;;;24.10;99.90;;;;;;5032380;28;20031;-62
2023/03/26 06:45:51;;;;;;;5.68;1.05;;;24.00;99.90;;;;;;5032440;28;20500;-63
2023/03/26 06:48:19;;;;;;;6.10;0.95;;;24.00;99.90;;;;;;5032158;28;20372;-63
2023/03/26 06:50:47;;;;;;;5.65;1.25;;;23.90;99.90;;;;;;5031976;28;20099;-63
2023/03/26 06:53:14;;;;;;;8.25;1.45;;;23.90;99.90;;;;;;5030242;28;20030;-64
2023/03/26 06:55:42;;;;;;;7.72;1.20;;;23.90;99.90;;;;;;5031843;28;20087;-63
2023/03/26 06:58:11;;;;;;;7.60;1.25;;;24.00;99.90;;;;;;5030804;28;20112;-66
2023/03/26 07:00:41;;;;;;;4.43;1.38;;;23.90;99.90;;;;;;5027609;28;20030;-66
2023/03/26 07:03:10;;;;;;;3.65;1.10;;;23.90;99.90;;;;;;5030743;28;20427;-66
2023/03/26 07:05:40;;;;;;;4.82;1.02;;;23.90;99.90;;;;;;5030046;28;20469;-66
2023/03/26 07:08:07;;;;;;;3.42;0.75;;;23.90;99.90;;;;;;5026233;28;20129;-65
2023/03/26 07:10:34;;;;;;;9.18;1.88;;;23.90;99.90;;;;;;5029679;28;20021;-64
2023/03/26 07:13:02;;;;;;;6.60;1.08;;;23.80;99.90;;;;;;5030514;28;20390;-64
2023/03/26 07:15:29;;;;;;;4.40;1.00;;;23.70;99.90;;;;;;5030322;28;20041;-64
2023/03/26 07:17:57;;;;;;;4.93;1.40;;;23.70;99.90;;;;;;5029799;28;20060;-64
2023/03/26 07:20:24;;;;;;;6.30;1.20;;;23.60;99.90;;;;;;5030494;28;20051;-65
2023/03/26 07:22:52;;;;;;;7.75;2.05;;;23.50;99.90;;;;;;5029337;28;20486;-65
2023/03/26 07:25:20;;;;;;;8.20;2.05;;;23.50;99.90;;;;;;5029115;28;20223;-64
2023/03/26 07:28:24;;;;;;;5.63;1.70;;;23.40;99.90;;;;;;5028587;28;20033;-66
2023/03/26 07:31:25;;;;;;;9.18;2.10;;;23.30;99.90;;;;;;5030232;28;20022;-64
2023/03/26 07:34:21;;;;;;;11.88;3.03;;;23.20;99.90;;;;;;4995293;28;20041;-65
2023/03/26 07:36:55;;;;;;;10.05;1.48;;;23.10;99.90;;;;;;5025898;28;20103;-64
2023/03/26 07:39:43;;;;;;;7.55;1.42;;;23.10;99.90;;;;;;5031189;28;20029;-65
2023/03/26 07:42:33;;;;;;;8.85;1.45;;;23.00;99.90;;;;;;5030857;28;20021;-65
2023/03/26 07:45:12;;;;;;;4.78;1.10;;;22.90;99.90;;;;;;5033406;28;20022;-65
2023/03/26 07:47:43;;;;;;;8.60;1.33;;;22.80;99.90;;;;;;5023206;28;20026;-64
2023/03/26 07:50:17;;;;;;;11.65;1.20;;;22.80;99.90;;;;;;5010795;28;20030;-65
2023/03/26 07:52:45;;;;;;;8.75;2.78;;;22.70;99.90;;;;;;5010988;28;20014;-64
2023/03/26 07:55:14;;;;;;;11.38;2.50;;;22.70;99.90;;;;;;5022444;28;20049;-63
2023/03/26 07:57:57;;;;;;;9.10;3.38;;;22.60;99.90;;;;;;5025650;28;20725;-64
2023/03/26 08:00:33;;;;;;;5.15;1.85;;;22.50;99.90;;;;;;5028437;28;20096;-64
2023/03/26 08:03:18;;;;;;;7.35;1.98;;;22.50;99.90;;;;;;5021116;28;20021;-65
2023/03/26 08:06:07;;;;;;;8.27;1.27;;;22.40;99.90;;;;;;5030606;28;20437;-65
2023/03/26 08:09:14;;;;;;;7.65;1.38;;;22.40;99.90;;;;;;5028671;28;20474;-65
2023/03/26 08:12:30;;;;;;;9.57;2.45;;;22.30;99.90;;;;;;5022750;28;20627;-66
2023/03/26 08:15:32;;;;;;;5.95;1.33;;;22.30;99.90;;;;;;5008317;28;20041;-68
2023/03/26 08:18:26;;;;;;;6.22;1.17;;;22.30;99.90;;;;;;4978761;28;20121;-67
2023/03/26 08:21:15;;;;;;;6.63;1.20;;;22.30;99.90;;;;;;5020098;28;20025;-68
2023/03/26 08:23:59;;;;;;;5.88;1.23;;;22.20;99.90;;;;;;5018757;28;20025;-67
2023/03/26 08:26:42;;;;;;;7.93;1.98;;;22.20;99.90;;;;;;5021571;28;20021;-67
2023/03/26 08:29:28;;;;;;;8.13;1.70;;;22.10;99.90;;;;;;5025915;28;20013;-67
2023/03/26 08:31:56;;;;;;;5.50;1.58;;;22.10;99.90;;;;;;5028082;28;20544;-67
2023/03/26 08:34:24;;;;;;;6.30;1.40;;;22.10;99.90;;;;;;5024572;28;20069;-67
2023/03/26 08:36:51;;;;;;;9.30;1.42;;;22.00;99.90;;;;;;5035694;28;20017;-68
2023/03/26 08:39:21;;;;;;;8.75;3.17;;;22.00;99.90;;;;;;5038263;28;20029;-68
2023/03/26 08:42:12;;;;;;;9.70;1.75;;;21.90;99.90;;;;;;5035738;28;20030;-67
2023/03/26 08:44:47;;;;;;;7.00;1.30;;;21.90;99.90;;;;;;5016648;28;20078;-67
2023/03/26 08:47:39;;;;;;;9.65;1.63;;;21.80;99.90;;;;;;5025245;28;20056;-67
2023/03/26 08:50:50;;;;;;;6.50;1.60;;;21.80;99.90;;;;;;5035684;28;20025;-68
2023/03/26 08:53:46;;;;;;;6.75;1.60;;;21.80;99.90;;;;;;5013918;28;20040;-67
2023/03/26 08:56:29;;;;;;;15.38;2.08;;;21.80;99.90;;;;;;5013113;28;20061;-66
2023/03/26 08:59:11;;;;;;;4.75;1.25;;;21.70;99.90;;;;;;5019925;28;20770;-66
2023/03/26 09:01:56;;;;;;;8.35;2.33;;;21.70;99.90;;;;;;5011077;28;20854;-67
2023/03/26 09:04:35;;;;;;;7.80;1.40;;;21.70;99.90;;;;;;5015118;28;20061;-66
2023/03/26 09:07:39;;;;;;;5.65;1.40;;;21.60;99.90;;;;;;5025367;28;20488;-66
2023/03/26 09:10:39;;;;;;;11.27;2.15;;;21.60;99.90;;;;;;5021906;28;20044;-66
2023/03/26 09:13:53;;;;;;;7.85;2.10;;;21.50;99.90;;;;;;5003489;28;20168;-67
2023/03/26 09:16:57;;;;;;;13.45;2.72;;;21.40;99.90;;;;;;4991014;28;20466;-67
2023/03/26 09:19:52;;;;;;;7.23;2.33;;;21.30;99.90;;;;;;4981322;28;20096;-66
2023/03/26 09:22:37;;;;;;;10.32;2.00;;;21.20;99.90;;;;;;5022538;28;20117;-67
2023/03/26 09:25:40;;;;;;;8.82;2.13;;;21.10;99.90;;;;;;5021642;28;20025;-67
2023/03/26 09:28:27;;;;;;;7.40;2.58;;;21.00;99.90;;;;;;5021377;28;20487;-66
2023/03/26 09:31:28;;;;;;;11.55;2.55;;;20.90;99.90;;;;;;5013547;28;20390;-66
2023/03/26 09:34:01;;;;;;;5.18;1.98;;;20.80;99.90;;;;;;5022334;28;20036;-67
2023/03/26 09:36:41;;;;;;;6.38;2.38;;;20.70;99.90;;;;;;5021874;28;20033;-66
2023/03/26 09:39:20;;;;;;;7.75;1.60;;;20.60;99.90;;;;;;5016133;28;20159;-66
2023/03/26 09:42:02;;;;;;;8.27;1.38;;;20.60;99.90;;;;;;5010868;28;21156;-65
2023/03/26 09:45:07;;;;;;;6.57;1.58;;;20.50;99.90;;;;;;5016908;28;20095;-66
2023/03/26 09:47:55;;;;;;;7.38;1.77;;;20.50;99.90;;;;;;5033187;28;20029;-66
2023/03/26 09:50:53;;;;;;;6.85;1.90;;;20.40;99.90;;;;;;5012378;28;20060;-64
2023/03/26 09:53:37;;;;;;;5.10;1.20;;;20.30;99.90;;;;;;5020155;28;20026;-66
2023/03/26 09:56:44;;;;;;;6.20;1.30;;;20.30;99.90;;;;;;5012650;28;20065;-66
2023/03/26 09:59:35;;;;;;;5.72;1.42;;;20.20;99.90;;;;;;4958188;28;20026;-66
2023/03/26 10:02:30;;;;;;;6.93;1.00;;;20.10;99.90;;;;;;5020692;28;20037;-66
2023/03/26 10:05:13;;;;;;;10.10;1.85;;;20.10;99.90;;;;;;5024816;28;20067;-66
2023/03/26 10:08:21;;;;;;;7.13;1.50;;;20.00;99.90;;;;;;5018973;28;20041;-66
2023/03/26 10:11:04;;;;;;;9.13;1.92;;;20.00;99.90;;;;;;5010305;28;20041;-66
2023/03/26 10:13:52;;;;;;;4.57;1.25;;;19.90;99.90;;;;;;5024415;28;20386;-66
2023/03/26 10:16:32;;;;;;;5.20;1.35;;;19.80;99.90;;;;;;5030083;28;20402;-66
2023/03/26 10:19:21;;;;;;;4.47;1.23;;;19.80;99.90;;;;;;5025319;28;20527;-66
2023/03/26 10:21:57;;;;;;;5.40;1.48;;;19.70;99.90;;;;;;5015324;28;20391;-66
2023/03/26 10:25:01;;;;;;;5.57;1.80;;;19.60;99.90;;;;;;5015082;28;20450;-66
2023/03/26 10:27:31;;;;;;;8.25;1.70;;;19.50;99.90;;;;;;5015166;28;20025;-66
2023/03/26 10:30:17;;;;;;;7.22;1.27;;;19.40;99.90;;;;;;5020783;28;20033;-66
2023/03/26 10:33:00;;;;;;;7.35;2.75;;;19.30;99.90;;;;;;5020704;28;20030;-66
2023/03/26 10:35:49;;;;;;;9.93;2.17;;;19.20;99.90;;;;;;5026235;28;20040;-66
2023/03/26 10:38:41;;;;;;;14.25;1.73;;;19.20;99.90;;;;;;5026266;28;20037;-66
2023/03/26 10:41:19;;;;;;;7.35;1.58;;;19.20;99.90;;;;;;5022593;28;20064;-66
2023/03/26 10:44:15;;;;;;;9.60;1.90;;;19.20;99.90;;;;;;5025287;28;20041;-65
2023/03/26 10:47:10;;;;;;;10.25;1.60;;;19.20;99.90;;;;;;5019126;28;20057;-66
2023/03/26 10:50:13;;;;;;;12.98;2.78;;;19.30;99.90;;;;;;5017743;28;20112;-66
2023/03/26 10:53:10;;;;;;;7.93;2.30;;;19.40;99.90;;;;;;5028839;28;20119;-67
2023/03/26 10:55:48;;;;;;;8.02;2.20;;;19.40;99.90;;;;;;5022617;28;20038;-66
2023/03/26 10:58:26;;;;;;;7.38;1.58;;;19.50;99.90;;;;;;5024169;28;20029;-65
2023/03/26 11:01:09;;;;;;;9.00;1.80;;;19.50;99.90;;;;;;5021576;28;20109;-66
2023/03/26 11:03:40;;;;;;;7.43;1.45;;;19.50;99.90;;;;;;5026097;28;20056;-66
2023/03/26 11:06:26;;;;;;;6.22;1.88;;;19.50;99.90;;;;;;5026955;28;20028;-65
2023/03/26 11:09:02;;;;;;;6.32;1.40;;;19.60;99.90;;;;;;5027236;28;20076;-66
2023/03/26 11:11:43;;;;;;;4.57;1.30;;;19.60;99.90;;;;;;5024959;28;20037;-65
2023/03/26 11:14:38;;;;;;;5.80;1.15;;;19.60;99.90;;;;;;5012611;28;20128;-65
2023/03/26 11:17:20;;;;;;;9.63;3.10;;;19.70;99.90;;;;;;5020518;28;20128;-65
2023/03/26 11:20:04;;;;;;;10.18;2.33;;;19.70;99.90;;;;;;5029382;28;20154;-65
2023/03/26 11:22:51;;;;;;;6.05;2.15;;;19.70;99.90;;;;;;5034596;28;20029;-65
2023/03/26 11:25:21;;;;;;;7.43;1.73;;;19.80;99.90;;;;;;5028426;28;20033;-65
2023/03/26 11:28:30;;;;;;;12.52;3.08;;;19.80;99.90;;;;;;5025859;28;20028;-66
2023/03/26 11:31:27;;;;;;;11.60;2.47;;;19.80;99.90;;;;;;5036208;28;20077;-65
2023/03/26 11:34:02;;;;;;;9.98;2.15;;;19.80;99.90;;;;;;5016709;28;20496;-65
2023/03/26 11:36:34;;;;;;;;;;;19.90;99.90;;;;;;5030917;28;20029;-65
2023/03/26 11:39:07;;;;;;;13.05;2.72;;;19.90;99.90;;;;;;5025943;28;20007;-65
2023/03/26 11:41:35;;;;;;;5.78;2.50;;;19.90;99.90;;;;;;5031529;28;20029;-65
2023/03/26 11:44:14;;;;;;;10.30;2.05;;;19.90;99.90;;;;;;5029121;28;20055;-65
2023/03/26 11:46:45;;;;;;;10.38;2.05;;;19.90;99.90;;;;;;5026842;28;20029;-66
2023/03/26 11:49:16;;;;;;;11.10;2.55;;;19.90;99.90;;;;;;5025028;28;20102;-66
2023/03/26 11:51:46;;;;;;;12.13;3.42;;;19.90;99.90;;;;;;5023633;28;20052;-66
2023/03/26 11:54:14;;;;;;;21.10;3.83;;;19.80;99.90;;;;;;5019074;28;20603;-65
2023/03/26 11:56:48;;;;;;;7.70;2.40;;;19.80;99.90;;;;;;5018782;28;20090;-65
2023/03/26 11:59:20;;;;;;;6.40;1.98;;;19.80;99.90;;;;;;5023234;28;20029;-65
2023/03/26 12:02:04;;;;;;;11.63;2.55;;;19.80;99.90;;;;;;5028605;28;20478;-66
2023/03/26 12:04:44;;;;;;;11.70;1.83;;;19.80;99.90;;;;;;5029561;28;20029;-66
2023/03/26 12:07:22;;;;;;;12.73;1.65;;;19.80;99.90;;;;;;5024134;28;20037;-65
2023/03/26 12:10:05;;;;;;;7.38;1.40;;;19.90;99.90;;;;;;5025826;28;20469;-66
2023/03/26 12:12:38;;;;;;;7.75;1.50;;;20.00;99.90;;;;;;5020593;28;20566;-65
2023/03/26 12:15:17;;;;;;;9.05;2.08;;;20.00;99.90;;;;;;5026842;28;20037;-65
2023/03/26 12:17:47;;;;;;;8.05;1.65;;;20.00;99.90;;;;;;5027819;28;20013;-65
2023/03/26 12:20:27;;;;;;;8.45;1.48;;;20.10;99.90;;;;;;5022690;28;20025;-65
2023/03/26 12:23:01;;;;;;;5.82;1.63;;;20.10;99.90;;;;;;5026717;28;20029;-64
2023/03/26 12:25:34;;;;;;;8.68;2.25;;;20.00;99.90;;;;;;5029371;28;20108;-65
2023/03/26 12:28:14;;;;;;;8.65;1.90;;;20.00;99.90;;;;;;5026766;28;20105;-65
2023/03/26 12:30:52;;;;;;;9.02;1.65;;;19.90;99.90;;;;;;5025080;28;20014;-65
2023/03/26 12:33:27;;;;;;;8.80;2.50;;;19.90;99.90;;;;;;5028539;28;20513;-65
2023/03/26 12:35:57;;;;;;;13.73;3.17;;;19.80;99.90;;;;;;5027971;28;20126;-65
2023/03/26 12:38:36;;;;;;;8.45;1.63;;;19.80;99.90;;;;;;5024817;28;20065;-65
2023/03/26 12:41:10;;;;;;;5.00;1.83;;;19.80;99.90;;;;;;5027917;28;20021;-64
2023/03/26 12:43:50;;;;;;;8.95;1.80;;;19.80;99.90;;;;;;5028773;28;20048;-65
2023/03/26 12:46:26;;;;;;;7.72;1.83;;;19.90;99.90;;;;;;5026565;28;20413;-66
2023/03/26 12:49:10;;;;;;;9.07;1.60;;;20.00;99.90;;;;;;5021597;28;20037;-64
2023/03/26 12:51:48;;;;;;;7.60;2.22;;;20.00;99.90;;;;;;5027009;28;20386;-65
2023/03/26 12:54:27;;;;;;;9.32;1.60;;;20.00;99.90;;;;;;5023933;28;20030;-65
2023/03/26 12:57:09;;;;;;;7.75;2.65;;;19.90;99.90;;;;;;5026074;28;20033;-65
2023/03/26 12:59:46;;;;;;;10.35;2.13;;;19.90;99.90;;;;;;5027536;28;20099;-65
2023/03/26 13:02:51;;;;;;;6.55;2.08;;;19.80;99.90;;;;;;5022644;28;20061;-66
2023/03/26 13:05:30;;;;;;;;;;;19.80;99.90;;;;;;5027267;28;20480;-65
2023/03/26 13:08:37;;;;;;;4.72;2.65;;;19.70;99.90;;;;;;5022380;28;19931;-65
2023/03/26 13:11:43;;;;;;;11.05;2.45;;;19.60;99.90;;;;;;5021447;28;20481;-65
2023/03/26 13:14:10;;;;;;;12.43;2.10;;;19.50;99.90;;;;;;4998462;28;20049;-65
2023/03/26 13:16:38;;;;;;;7.72;1.70;;;19.50;99.90;;;;;;5018328;28;20042;-64
2023/03/26 13:19:39;;;;;;;9.85;1.92;;;19.40;99.90;;;;;;5019082;28;20022;-64
2023/03/26 13:22:16;;;;;;;9.00;2.03;;;19.30;99.90;;;;;;5026274;28;20064;-64
2023/03/26 13:25:07;;;;;;;9.23;2.75;;;19.30;99.90;;;;;;5016187;28;20030;-65
2023/03/26 13:28:06;;;;;;;17.77;4.15;;;19.30;99.90;;;;;;5022178;28;20030;-65
2023/03/26 13:30:56;;;;;;;17.83;4.57;;;19.30;99.90;;;;;;5020766;28;20029;-65
2023/03/26 13:33:34;;;;;;;15.98;3.25;;;19.30;99.90;;;;;;5031872;28;20064;-65